Time,TemperatureF,DewpointF,PressureIn,WindDirection,WindDirectionDegrees,WindSpeedMPH,WindSpeedGustMPH,Humidity,HourlyPrecipIn,Conditions,Clouds,dailyrainin,SoftwareType,DateUTC
2013-06-11 00:00:00,76.8,58.4,29.88,SSE,157,0.0,5.0,53,0.00,,---,0.00,VWS V14.01,2013-06-11 05:00:00,
2013-06-11 00:03:00,76.3,57.9,29.88,SSE,152,4.0,5.0,53,0.00,,---,0.00,VWS V14.01,2013-06-11 05:03:00,
2013-06-11 00:06:00,76.2,58.4,29.88,SSE,154,4.0,6.0,54,0.00,,---,0.00,VWS V14.01,2013-06-11 05:06:00,
2013-06-11 00:09:00,76.4,58.5,29.88,SSE,153,2.0,7.0,54,0.00,,---,0.00,VWS V14.01,2013-06-11 05:09:00,
2013-06-11 00:12:00,76.7,58.8,29.88,SSE,157,2.0,7.0,54,0.00,,---,0.00,VWS V14.01,2013-06-11 05:12:00,
2013-06-11 00:15:00,77.0,59.1,29.88,SSE,157,3.0,7.0,54,0.00,,---,0.00,VWS V14.01,2013-06-11 05:15:00,
2013-06-11 00:18:00,77.2,59.3,29.88,South,171,4.0,8.0,54,0.00,,---,0.00,VWS V14.01,2013-06-11 05:18:00,
2013-06-11 00:21:00,77.4,59.0,29.88,SE,145,3.0,8.0,53,0.00,,---,0.00,VWS V14.01,2013-06-11 05:21:00,
2013-06-11 00:24:00,77.6,59.7,29.88,SSE,150,3.0,8.0,54,0.00,,---,0.00,VWS V14.01,2013-06-11 05:24:00,
2013-06-11 00:27:00,77.7,59.8,29.88,South,179,4.0,8.0,54,0.00,,---,0.00,VWS V14.01,2013-06-11 05:27:00,
2013-06-11 00:30:00,77.7,59.8,29.87,SSE,154,3.0,8.0,54,0.00,,---,0.00,VWS V14.01,2013-06-11 05:30:00,
2013-06-11 00:33:00,77.7,60.3,29.87,SSE,150,5.0,6.0,55,0.00,,---,0.00,VWS V14.01,2013-06-11 05:33:00,
2013-06-11 00:36:00,77.7,60.3,29.87,SSE,166,4.0,8.0,55,0.00,,---,0.00,VWS V14.01,2013-06-11 05:36:00,
2013-06-11 00:39:00,77.7,60.8,29.87,South,173,3.0,10.0,56,0.00,,---,0.00,VWS V14.01,2013-06-11 05:39:00,
2013-06-11 00:42:00,77.7,60.8,29.87,SSE,163,6.0,10.0,56,0.00,,---,0.00,VWS V14.01,2013-06-11 05:42:00,
2013-06-11 00:45:00,77.6,61.2,29.87,South,169,3.0,10.0,57,0.00,,---,0.00,VWS V14.01,2013-06-11 05:45:00,
2013-06-11 00:48:00,77.6,61.2,29.87,South,182,2.0,10.0,57,0.00,,---,0.00,VWS V14.01,2013-06-11 05:48:00,
2013-06-11 00:51:00,77.4,61.5,29.87,SSE,165,5.0,10.0,58,0.00,,---,0.00,VWS V14.01,2013-06-11 05:51:00,
2013-06-11 00:54:00,77.4,61.5,29.87,SSE,161,5.0,10.0,58,0.00,,---,0.00,VWS V14.01,2013-06-11 05:54:00,
2013-06-11 00:57:00,77.3,61.9,29.87,SSE,165,3.0,10.0,59,0.00,,---,0.00,VWS V14.01,2013-06-11 05:57:00,
2013-06-11 01:00:00,77.2,61.8,29.87,SSE,162,3.0,10.0,59,0.00,,---,0.00,VWS V14.01,2013-06-11 06:00:00,
2013-06-11 01:03:00,77.1,62.2,29.87,South,170,3.0,5.0,60,0.00,,---,0.00,VWS V14.01,2013-06-11 06:03:00,
2013-06-11 01:06:00,76.9,62.0,29.87,South,182,2.0,7.0,60,0.00,,---,0.00,VWS V14.01,2013-06-11 06:06:00,
2013-06-11 01:15:00,76.4,62.4,29.86,South,171,3.0,7.0,62,0.00,,---,0.00,VWS V14.01,2013-06-11 06:15:00,
2013-06-11 01:18:00,76.2,62.2,29.86,South,180,2.0,7.0,62,0.00,,---,0.00,VWS V14.01,2013-06-11 06:18:00,
2013-06-11 01:21:00,76.0,62.5,29.86,South,184,1.0,7.0,63,0.00,,---,0.00,VWS V14.01,2013-06-11 06:21:00,
2013-06-11 01:24:00,75.8,62.3,29.86,South,176,1.0,7.0,63,0.00,,---,0.00,VWS V14.01,2013-06-11 06:24:00,
2013-06-11 01:30:00,75.4,62.8,29.86,South,174,3.0,7.0,65,0.00,,---,0.00,VWS V14.01,2013-06-11 06:30:00,
2013-06-11 01:33:00,75.2,63.1,29.86,South,173,2.0,5.0,66,0.00,,---,0.00,VWS V14.01,2013-06-11 06:33:00,
2013-06-11 01:39:00,75.3,63.2,29.86,SSE,159,2.0,5.0,66,0.00,,---,0.00,VWS V14.01,2013-06-11 06:39:00,
2013-06-11 01:42:00,75.4,63.3,29.85,South,175,6.0,6.0,66,0.00,,---,0.00,VWS V14.01,2013-06-11 06:42:00,
2013-06-11 01:55:00,75.4,63.7,29.85,SSE,157,1.0,6.0,67,0.00,,---,0.00,VWS V14.01,2013-06-11 06:55:00,
2013-06-11 02:00:00,75.4,63.7,29.86,SSE,164,2.0,6.0,67,0.00,,---,0.00,VWS V14.01,2013-06-11 07:00:00,
2013-06-11 02:01:00,75.4,63.7,29.85,SSE,164,2.0,3.0,67,0.00,,---,0.00,VWS V14.01,2013-06-11 07:01:00,
2013-06-11 02:04:00,75.3,64.0,29.85,SSE,166,5.0,5.0,68,0.00,,---,0.00,VWS V14.01,2013-06-11 07:04:00,
2013-06-11 02:07:00,75.2,63.9,29.85,SSE,167,0.0,5.0,68,0.00,,---,0.00,VWS V14.01,2013-06-11 07:07:00,
2013-06-11 02:08:00,76.8,61.9,29.86,SSE,168,4.0,7.0,60,0.00,,---,0.00,VWS V14.01,2013-06-11 07:08:00,
2013-06-11 02:10:00,75.0,63.7,29.86,South,169,1.0,5.0,68,0.00,,---,0.00,VWS V14.01,2013-06-11 07:10:00,
2013-06-11 02:13:00,74.7,63.9,29.85,South,169,1.0,5.0,69,0.00,,---,0.00,VWS V14.01,2013-06-11 07:13:00,
2013-06-11 02:19:00,74.2,63.8,29.85,SSE,165,2.0,5.0,70,0.00,,---,0.00,VWS V14.01,2013-06-11 07:19:00,
2013-06-11 02:22:00,74.2,63.8,29.85,SSE,156,2.0,6.0,70,0.00,,---,0.00,VWS V14.01,2013-06-11 07:22:00,
2013-06-11 02:25:00,74.2,63.8,29.86,SSE,159,3.0,6.0,70,0.00,,---,0.00,VWS V14.01,2013-06-11 07:25:00,
2013-06-11 02:26:00,75.6,62.6,29.86,South,176,2.0,7.0,64,0.00,,---,0.00,VWS V14.01,2013-06-11 07:26:00,
2013-06-11 02:35:00,75.2,63.1,29.85,SSE,165,3.0,5.0,66,0.00,,---,0.00,VWS V14.01,2013-06-11 07:35:00,
2013-06-11 02:44:00,75.4,63.3,29.85,SSE,161,2.0,6.0,66,0.00,,---,0.00,VWS V14.01,2013-06-11 07:44:00,
2013-06-11 02:46:00,74.8,63.5,29.85,SSE,163,3.0,7.0,68,0.00,,---,0.00,VWS V14.01,2013-06-11 07:46:00,
2013-06-11 02:47:00,75.4,63.3,29.86,SSE,165,1.0,6.0,66,0.00,,---,0.00,VWS V14.01,2013-06-11 07:47:00,
2013-06-11 02:49:00,74.8,63.5,29.85,SSE,165,3.0,7.0,68,0.00,,---,0.00,VWS V14.01,2013-06-11 07:49:00,
2013-06-11 02:50:00,75.4,63.7,29.86,SSE,163,4.0,6.0,67,0.00,,---,0.00,VWS V14.01,2013-06-11 07:50:00,
2013-06-11 02:52:00,74.7,63.5,29.85,South,169,2.0,7.0,68,0.00,,---,0.00,VWS V14.01,2013-06-11 07:52:00,
2013-06-11 02:56:00,75.4,63.7,29.85,South,170,2.0,6.0,67,0.00,,---,0.00,VWS V14.01,2013-06-11 07:56:00,
2013-06-11 02:58:00,74.6,63.3,29.85,SSE,159,3.0,7.0,68,0.00,,---,0.00,VWS V14.01,2013-06-11 07:58:00,
2013-06-11 03:01:00,74.4,63.2,29.85,SSE,157,3.0,5.0,68,0.00,,---,0.00,VWS V14.01,2013-06-11 08:01:00,
2013-06-11 03:07:00,74.0,63.2,29.85,SSE,157,5.0,6.0,69,0.00,,---,0.00,VWS V14.01,2013-06-11 08:07:00,
2013-06-11 03:13:00,73.8,63.0,29.85,South,170,5.0,7.0,69,0.00,,---,0.00,VWS V14.01,2013-06-11 08:13:00,
2013-06-11 03:14:00,74.5,63.7,29.85,SSE,163,0.0,5.0,69,0.00,,---,0.00,VWS V14.01,2013-06-11 08:14:00,
2013-06-11 03:16:00,73.7,62.9,29.85,SSE,154,3.0,7.0,69,0.00,,---,0.00,VWS V14.01,2013-06-11 08:16:00,
2013-06-11 03:27:00,74.3,63.9,29.85,SSE,163,3.0,6.0,70,0.00,,---,0.00,VWS V14.01,2013-06-11 08:27:00,
2013-06-11 03:30:00,74.5,64.1,29.85,SSE,164,3.0,7.0,70,0.00,,---,0.00,VWS V14.01,2013-06-11 08:30:00,
2013-06-11 03:33:00,74.6,63.8,29.85,SSE,155,2.0,7.0,69,0.00,,---,0.00,VWS V14.01,2013-06-11 08:33:00,
2013-06-11 03:34:00,73.6,62.8,29.85,SSE,156,5.0,6.0,69,0.00,,---,0.00,VWS V14.01,2013-06-11 08:34:00,
2013-06-11 03:36:00,74.7,63.9,29.85,South,175,3.0,7.0,69,0.00,,---,0.00,VWS V14.01,2013-06-11 08:36:00,
2013-06-11 03:41:00,73.4,62.6,29.85,South,171,4.0,6.0,69,0.00,,---,0.00,VWS V14.01,2013-06-11 08:41:00,
2013-06-11 03:42:00,74.8,63.5,29.85,SSE,157,4.0,7.0,68,0.00,,---,0.00,VWS V14.01,2013-06-11 08:42:00,
2013-06-11 03:54:00,74.7,63.5,29.85,South,174,4.0,7.0,68,0.00,,---,0.00,VWS V14.01,2013-06-11 08:54:00,
2013-06-11 03:56:00,72.5,62.6,29.86,SSE,161,2.0,6.0,71,0.00,,---,0.00,VWS V14.01,2013-06-11 08:56:00,
2013-06-11 03:58:00,74.5,63.3,29.85,SSE,165,3.0,7.0,68,0.00,,---,0.00,VWS V14.01,2013-06-11 08:58:00,
2013-06-11 03:59:00,72.3,62.8,29.86,SSE,163,4.0,6.0,72,0.00,,---,0.00,VWS V14.01,2013-06-11 08:59:00,
2013-06-11 04:09:00,73.9,63.1,29.85,SSE,156,5.0,7.0,69,0.00,,---,0.00,VWS V14.01,2013-06-11 09:09:00,
2013-06-11 04:18:00,73.7,62.9,29.85,SSE,156,5.0,7.0,69,0.00,,---,0.00,VWS V14.01,2013-06-11 09:18:00,
2013-06-11 04:24:00,73.6,62.8,29.85,South,184,3.0,7.0,69,0.00,,---,0.00,VWS V14.01,2013-06-11 09:24:00,
2013-06-11 04:30:00,73.6,62.8,29.85,SSE,161,3.0,4.0,69,0.00,,---,0.00,VWS V14.01,2013-06-11 09:30:00,
2013-06-11 04:38:00,72.4,64.0,29.86,SSE,167,4.0,8.0,75,0.00,,---,0.00,VWS V14.01,2013-06-11 09:38:00,
2013-06-11 04:42:00,73.3,62.9,29.85,South,171,2.0,6.0,70,0.00,,---,0.00,VWS V14.01,2013-06-11 09:42:00,
2013-06-11 04:44:00,72.1,64.1,29.87,South,171,5.0,8.0,76,0.00,,---,0.00,VWS V14.01,2013-06-11 09:44:00,
2013-06-11 04:45:00,73.2,62.8,29.85,South,169,3.0,6.0,70,0.00,,---,0.00,VWS V14.01,2013-06-11 09:45:00,
2013-06-11 04:48:00,73.0,62.7,29.86,South,178,1.0,6.0,70,0.00,,---,0.00,VWS V14.01,2013-06-11 09:48:00,
2013-06-11 04:58:00,72.3,62.8,29.86,SSE,163,2.0,6.0,72,0.00,,---,0.00,VWS V14.01,2013-06-11 09:58:00,
2013-06-11 05:00:00,72.3,62.8,29.85,SSE,167,3.0,6.0,72,0.00,,---,0.00,VWS V14.01,2013-06-11 10:00:00,
2013-06-11 05:06:00,72.4,62.9,29.86,South,174,3.0,6.0,72,0.00,,---,0.00,VWS V14.01,2013-06-11 10:06:00,
2013-06-11 05:09:00,72.4,62.9,29.86,South,189,1.0,6.0,72,0.00,,---,0.00,VWS V14.01,2013-06-11 10:09:00,
2013-06-11 05:12:00,72.3,62.8,29.86,South,171,2.0,6.0,72,0.00,,---,0.00,VWS V14.01,2013-06-11 10:12:00,
2013-06-11 05:15:00,72.2,62.7,29.86,SSE,153,4.0,6.0,72,0.00,,---,0.00,VWS V14.01,2013-06-11 10:15:00,
2013-06-11 05:20:00,72.7,65.8,29.88,South,183,2.0,9.0,79,0.00,,---,0.00,VWS V14.01,2013-06-11 10:20:00,
2013-06-11 05:22:00,72.2,63.1,29.86,SSW,196,6.0,8.0,73,0.00,,---,0.00,VWS V14.01,2013-06-11 10:22:00,
2013-06-11 05:25:00,72.2,63.5,29.86,South,175,4.0,8.0,74,0.00,,---,0.00,VWS V14.01,2013-06-11 10:25:00,
2013-06-11 05:28:00,72.3,63.6,29.86,South,176,4.0,8.0,74,0.00,,---,0.00,VWS V14.01,2013-06-11 10:28:00,
2013-06-11 05:31:00,72.4,63.7,29.86,SSE,151,8.0,8.0,74,0.00,,---,0.00,VWS V14.01,2013-06-11 10:31:00,
2013-06-11 05:34:00,72.5,64.1,29.86,South,175,4.0,8.0,75,0.00,,---,0.00,VWS V14.01,2013-06-11 10:34:00,
2013-06-11 05:40:00,72.2,64.2,29.86,South,175,3.0,8.0,76,0.00,,---,0.00,VWS V14.01,2013-06-11 10:40:00,
2013-06-11 05:46:00,72.2,64.2,29.87,SSE,157,4.0,8.0,76,0.00,,---,0.00,VWS V14.01,2013-06-11 10:46:00,
2013-06-11 05:49:00,72.3,64.7,29.87,SSE,167,5.0,8.0,77,0.00,,---,0.00,VWS V14.01,2013-06-11 10:49:00,
2013-06-11 05:52:00,72.4,64.8,29.87,South,169,5.0,8.0,77,0.00,,---,0.00,VWS V14.01,2013-06-11 10:52:00,
2013-06-11 05:55:00,72.5,65.3,29.87,SSE,162,5.0,8.0,78,0.00,,---,0.00,VWS V14.01,2013-06-11 10:55:00,
2013-06-11 05:58:00,72.6,65.3,29.87,South,178,3.0,8.0,78,0.00,,---,0.00,VWS V14.01,2013-06-11 10:58:00,
2013-06-11 06:01:00,72.6,65.3,29.87,SSE,167,5.0,6.0,78,0.00,,---,0.00,VWS V14.01,2013-06-11 11:01:00,
2013-06-11 06:04:00,72.6,65.3,29.88,South,177,6.0,7.0,78,0.00,,---,0.00,VWS V14.01,2013-06-11 11:04:00,
2013-06-11 06:07:00,72.7,65.8,29.88,SSE,156,4.0,9.0,79,0.00,,---,0.00,VWS V14.01,2013-06-11 11:07:00,
2013-06-11 06:13:00,72.7,65.8,29.88,South,182,6.0,9.0,79,0.00,,---,0.00,VWS V14.01,2013-06-11 11:13:00,
2013-06-11 06:22:00,72.6,65.7,29.88,SSW,193,4.0,9.0,79,0.00,,---,0.00,VWS V14.01,2013-06-11 11:22:00,
2013-06-11 06:25:00,72.6,66.1,29.88,South,172,4.0,9.0,80,0.00,,---,0.00,VWS V14.01,2013-06-11 11:25:00,
2013-06-11 06:28:00,72.7,66.2,29.88,South,180,1.0,9.0,80,0.00,,---,0.00,VWS V14.01,2013-06-11 11:28:00,
2013-06-11 06:31:00,72.8,66.3,29.88,South,191,4.0,7.0,80,0.00,,---,0.00,VWS V14.01,2013-06-11 11:31:00,
2013-06-11 06:34:00,73.0,66.5,29.89,SSW,193,6.0,8.0,80,0.00,,---,0.00,VWS V14.01,2013-06-11 11:34:00,
2013-06-11 06:40:00,73.5,66.6,29.89,South,181,8.0,9.0,79,0.00,,---,0.00,VWS V14.01,2013-06-11 11:40:00,
2013-06-11 06:43:00,73.8,66.9,29.89,South,189,5.0,9.0,79,0.00,,---,0.00,VWS V14.01,2013-06-11 11:43:00,
2013-06-11 06:49:00,74.0,67.1,29.89,South,170,7.0,9.0,79,0.00,,---,0.00,VWS V14.01,2013-06-11 11:49:00,
2013-06-11 06:52:00,74.0,67.1,29.89,South,173,3.0,9.0,79,0.00,,---,0.00,VWS V14.01,2013-06-11 11:52:00,
2013-06-11 06:55:00,74.1,67.2,29.89,SSW,194,7.0,10.0,79,0.00,,---,0.00,VWS V14.01,2013-06-11 11:55:00,
2013-06-11 06:58:00,74.3,67.0,29.89,SSW,193,4.0,4.0,78,0.00,,---,0.00,VWS V14.01,2013-06-11 11:58:00,
2013-06-11 07:01:00,74.5,67.6,29.89,SSW,196,3.0,10.0,79,0.00,,---,0.00,VWS V14.01,2013-06-11 12:01:00,
2013-06-11 07:04:00,74.6,67.7,29.89,South,182,5.0,10.0,79,0.00,,---,0.00,VWS V14.01,2013-06-11 12:04:00,
2013-06-11 07:07:00,74.7,67.8,29.89,SSW,194,7.0,10.0,79,0.00,,---,0.00,VWS V14.01,2013-06-11 12:07:00,
2013-06-11 07:10:00,74.8,67.5,29.89,South,172,6.0,10.0,78,0.00,,---,0.00,VWS V14.01,2013-06-11 12:10:00,
2013-06-11 07:13:00,75.1,67.8,29.89,SSW,192,3.0,10.0,78,0.00,,---,0.00,VWS V14.01,2013-06-11 12:13:00,
2013-06-11 07:20:00,75.6,68.6,29.89,South,188,6.0,10.0,79,0.00,,---,0.00,VWS V14.01,2013-06-11 12:20:00,
2013-06-11 07:23:00,75.8,68.5,29.89,South,184,6.0,10.0,78,0.00,,---,0.00,VWS V14.01,2013-06-11 12:23:00,
2013-06-11 07:26:00,76.0,68.7,29.89,South,189,5.0,10.0,78,0.00,,---,0.00,VWS V14.01,2013-06-11 12:26:00,
2013-06-11 07:28:00,76.2,68.8,29.89,South,184,4.0,10.0,78,0.00,,---,0.00,VWS V14.01,2013-06-11 12:28:00,
2013-06-11 07:29:00,76.2,68.8,29.89,SSE,164,8.0,8.0,78,0.00,,---,0.00,VWS V14.01,2013-06-11 12:29:00,
2013-06-11 07:32:00,76.5,69.1,29.89,SSW,194,3.0,8.0,78,0.00,,---,0.00,VWS V14.01,2013-06-11 12:32:00,
2013-06-11 07:35:00,76.8,69.1,29.89,South,178,4.0,11.0,77,0.00,,---,0.00,VWS V14.01,2013-06-11 12:35:00,
2013-06-11 07:38:00,77.0,69.2,29.89,South,190,10.0,12.0,77,0.00,,---,0.00,VWS V14.01,2013-06-11 12:38:00,
2013-06-11 07:41:00,77.1,69.3,29.90,SSW,194,6.0,12.0,77,0.00,,---,0.00,VWS V14.01,2013-06-11 12:41:00,
2013-06-11 07:44:00,77.2,69.4,29.90,SSW,202,7.0,12.0,77,0.00,,---,0.00,VWS V14.01,2013-06-11 12:44:00,
2013-06-11 07:47:00,77.3,69.2,29.90,SSW,198,11.0,12.0,76,0.00,,---,0.00,VWS V14.01,2013-06-11 12:47:00,
2013-06-11 07:50:00,77.5,69.3,29.90,SSW,195,8.0,14.0,76,0.00,,---,0.00,VWS V14.01,2013-06-11 12:50:00,
2013-06-11 07:53:00,77.6,69.4,29.90,SSW,211,7.0,14.0,76,0.00,,---,0.00,VWS V14.01,2013-06-11 12:53:00,
2013-06-11 07:56:00,77.8,69.6,29.90,SSW,202,7.0,14.0,76,0.00,,---,0.00,VWS V14.01,2013-06-11 12:56:00,
2013-06-11 07:59:00,78.0,69.8,29.90,South,181,6.0,10.0,76,0.00,,---,0.00,VWS V14.01,2013-06-11 12:59:00,
2013-06-11 08:02:00,78.1,69.5,29.90,SW,214,5.0,11.0,75,0.00,,---,0.00,VWS V14.01,2013-06-11 13:02:00,
2013-06-11 08:05:00,78.0,69.4,29.90,SSW,210,7.0,13.0,75,0.00,,---,0.00,VWS V14.01,2013-06-11 13:05:00,
2013-06-11 08:11:00,78.2,69.6,29.90,SSW,207,9.0,13.0,75,0.00,,---,0.00,VWS V14.01,2013-06-11 13:11:00,
2013-06-11 08:14:00,78.4,69.4,29.90,SSW,203,7.0,13.0,74,0.00,,---,0.00,VWS V14.01,2013-06-11 13:14:00,
2013-06-11 08:17:00,78.6,70.0,29.90,SSW,201,4.0,13.0,75,0.00,,---,0.00,VWS V14.01,2013-06-11 13:17:00,
2013-06-11 08:23:00,79.0,70.0,29.91,South,184,7.0,13.0,74,0.00,,---,0.00,VWS V14.01,2013-06-11 13:23:00,
2013-06-11 08:26:00,79.1,69.7,29.91,SSW,213,8.0,15.0,73,0.00,,---,0.00,VWS V14.01,2013-06-11 13:26:00,
2013-06-11 08:28:00,79.2,70.2,29.91,SSW,209,8.0,15.0,74,0.00,,---,0.00,VWS V14.01,2013-06-11 13:28:00,
2013-06-11 08:29:00,79.2,69.8,29.91,SW,225,8.0,11.0,73,0.00,,---,0.00,VWS V14.01,2013-06-11 13:29:00,
2013-06-11 08:32:00,79.3,70.3,29.91,SW,220,7.0,12.0,74,0.00,,---,0.00,VWS V14.01,2013-06-11 13:32:00,
2013-06-11 08:35:00,79.4,70.0,29.91,SSW,198,7.0,12.0,73,0.00,,---,0.00,VWS V14.01,2013-06-11 13:35:00,
2013-06-11 08:38:00,79.6,70.6,29.91,SW,223,7.0,13.0,74,0.00,,---,0.00,VWS V14.01,2013-06-11 13:38:00,
2013-06-11 08:41:00,79.7,70.3,29.91,SW,217,4.0,13.0,73,0.00,,---,0.00,VWS V14.01,2013-06-11 13:41:00,
2013-06-11 08:44:00,79.9,70.5,29.91,SW,218,6.0,13.0,73,0.00,,---,0.00,VWS V14.01,2013-06-11 13:44:00,
2013-06-11 08:50:00,80.3,70.9,29.91,SW,229,7.0,13.0,73,0.00,,---,0.00,VWS V14.01,2013-06-11 13:50:00,
2013-06-11 08:53:00,80.5,70.7,29.91,SSW,192,7.0,15.0,72,0.00,,---,0.00,VWS V14.01,2013-06-11 13:53:00,
2013-06-11 09:00:00,80.7,70.8,29.91,SW,226,9.0,9.0,72,0.00,,---,0.00,VWS V14.01,2013-06-11 14:00:00,
2013-06-11 09:03:00,80.8,70.9,29.91,SSW,194,9.0,12.0,72,0.00,,---,0.00,VWS V14.01,2013-06-11 14:03:00,
2013-06-11 09:09:00,81.2,70.9,29.91,SSW,196,10.0,14.0,71,0.00,,---,0.00,VWS V14.01,2013-06-11 14:09:00,
2013-06-11 09:15:00,81.1,70.8,29.91,SW,222,5.0,15.0,71,0.00,,---,0.00,VWS V14.01,2013-06-11 14:15:00,
2013-06-11 09:18:00,81.2,70.9,29.91,WSW,244,10.0,15.0,71,0.00,,---,0.00,VWS V14.01,2013-06-11 14:18:00,
2013-06-11 09:21:00,81.4,71.1,29.91,SW,227,5.0,15.0,71,0.00,,---,0.00,VWS V14.01,2013-06-11 14:21:00,
2013-06-11 09:27:00,81.8,71.1,29.91,SSW,204,7.0,15.0,70,0.00,,---,0.00,VWS V14.01,2013-06-11 14:27:00,
2013-06-11 09:28:00,81.9,71.6,29.91,SW,217,9.0,15.0,71,0.00,,---,0.00,VWS V14.01,2013-06-11 14:28:00,
2013-06-11 09:30:00,82.0,71.3,29.92,WSW,242,8.0,10.0,70,0.00,,---,0.00,VWS V14.01,2013-06-11 14:30:00,
2013-06-11 09:33:00,82.1,71.8,29.92,SSW,200,6.0,10.0,71,0.00,,---,0.00,VWS V14.01,2013-06-11 14:33:00,
2013-06-11 09:36:00,82.3,71.1,29.92,SSW,204,7.0,12.0,69,0.00,,---,0.00,VWS V14.01,2013-06-11 14:36:00,
2013-06-11 09:39:00,82.7,71.5,29.92,SW,215,7.0,12.0,69,0.00,,---,0.00,VWS V14.01,2013-06-11 14:39:00,
2013-06-11 09:45:00,82.9,71.7,29.92,SW,219,5.0,12.0,69,0.00,,---,0.00,VWS V14.01,2013-06-11 14:45:00,
2013-06-11 09:48:00,83.1,71.4,29.92,SSW,212,6.0,12.0,68,0.00,,---,0.00,VWS V14.01,2013-06-11 14:48:00,
2013-06-11 09:54:00,83.6,71.9,29.91,South,188,5.0,12.0,68,0.00,,---,0.00,VWS V14.01,2013-06-11 14:54:00,
2013-06-11 09:57:00,84.1,72.4,29.91,South,184,5.0,12.0,68,0.00,,---,0.00,VWS V14.01,2013-06-11 14:57:00,
2013-06-11 09:58:00,84.3,72.6,29.91,South,176,5.0,12.0,68,0.00,,---,0.00,VWS V14.01,2013-06-11 14:58:00,
2013-06-11 10:09:00,85.0,72.4,29.91,SSW,197,6.0,12.0,66,0.00,,---,0.00,VWS V14.01,2013-06-11 15:09:00,
2013-06-11 10:12:00,85.0,71.9,29.91,SSW,194,7.0,12.0,65,0.00,,---,0.00,VWS V14.01,2013-06-11 15:12:00,
2013-06-11 10:15:00,85.0,71.9,29.91,South,189,6.0,12.0,65,0.00,,---,0.00,VWS V14.01,2013-06-11 15:15:00,
2013-06-11 10:21:00,86.0,71.9,29.91,SSW,199,6.0,12.0,63,0.00,,---,0.00,VWS V14.01,2013-06-11 15:21:00,
2013-06-11 10:24:00,85.9,71.8,29.91,SW,216,7.0,12.0,63,0.00,,---,0.00,VWS V14.01,2013-06-11 15:24:00,
2013-06-11 10:27:00,85.6,72.5,29.91,SSW,202,7.0,12.0,65,0.00,,---,0.00,VWS V14.01,2013-06-11 15:27:00,
2013-06-11 10:28:00,85.6,72.0,29.91,SSW,206,7.0,12.0,64,0.00,,---,0.00,VWS V14.01,2013-06-11 15:28:00,
2013-06-11 10:30:00,85.7,72.1,29.91,South,184,8.0,8.0,64,0.00,,---,0.00,VWS V14.01,2013-06-11 15:30:00,
2013-06-11 10:33:00,86.2,72.1,29.91,South,188,3.0,10.0,63,0.00,,---,0.00,VWS V14.01,2013-06-11 15:33:00,
2013-06-11 10:36:00,86.6,72.0,29.91,SSW,193,4.0,10.0,62,0.00,,---,0.00,VWS V14.01,2013-06-11 15:36:00,
2013-06-11 10:39:00,86.5,71.9,29.91,SSW,192,7.0,12.0,62,0.00,,---,0.00,VWS V14.01,2013-06-11 15:39:00,
2013-06-11 10:45:00,86.9,72.3,29.91,South,177,5.0,12.0,62,0.00,,---,0.00,VWS V14.01,2013-06-11 15:45:00,
2013-06-11 10:48:00,87.2,72.1,29.91,South,182,6.0,12.0,61,0.00,,---,0.00,VWS V14.01,2013-06-11 15:48:00,
2013-06-11 10:55:00,87.5,71.9,29.91,SSE,153,8.0,12.0,60,0.00,,---,0.00,VWS V14.01,2013-06-11 15:55:00,
2013-06-11 10:58:00,87.7,72.1,29.91,South,188,10.0,12.0,60,0.00,,---,0.00,VWS V14.01,2013-06-11 15:58:00,
2013-06-11 11:04:00,87.9,71.8,29.91,SSW,202,9.0,11.0,59,0.00,,---,0.00,VWS V14.01,2013-06-11 16:04:00,
2013-06-11 11:07:00,87.9,71.3,29.91,SSW,200,7.0,12.0,58,0.00,,---,0.00,VWS V14.01,2013-06-11 16:07:00,
2013-06-11 11:10:00,87.6,71.0,29.91,South,184,4.0,12.0,58,0.00,,---,0.00,VWS V14.01,2013-06-11 16:10:00,
2013-06-11 11:13:00,87.7,71.6,29.91,South,172,5.0,12.0,59,0.00,,---,0.00,VWS V14.01,2013-06-11 16:13:00,
2013-06-11 11:16:00,88.0,71.4,29.91,SSE,167,5.0,12.0,58,0.00,,---,0.00,VWS V14.01,2013-06-11 16:16:00,
2013-06-11 11:19:00,88.1,71.5,29.92,SSW,211,7.0,12.0,58,0.00,,---,0.00,VWS V14.01,2013-06-11 16:19:00,
2013-06-11 11:22:00,88.0,71.4,29.91,SSW,192,6.0,12.0,58,0.00,,---,0.00,VWS V14.01,2013-06-11 16:22:00,
2013-06-11 11:25:00,88.3,72.2,29.91,SSW,208,5.0,12.0,59,0.00,,---,0.00,VWS V14.01,2013-06-11 16:25:00,
2013-06-11 11:28:00,88.0,70.3,29.91,South,184,12.0,12.0,56,0.00,,---,0.00,VWS V14.01,2013-06-11 16:28:00,
2013-06-11 11:31:00,87.8,70.2,29.91,South,189,3.0,12.0,56,0.00,,---,0.00,VWS V14.01,2013-06-11 16:31:00,
2013-06-11 11:37:00,88.7,71.0,29.91,SW,215,5.0,13.0,56,0.00,,---,0.00,VWS V14.01,2013-06-11 16:37:00,
2013-06-11 11:40:00,88.9,70.7,29.91,SSE,157,4.0,13.0,55,0.00,,---,0.00,VWS V14.01,2013-06-11 16:40:00,
2013-06-11 11:43:00,89.0,70.8,29.91,SW,236,10.0,13.0,55,0.00,,---,0.00,VWS V14.01,2013-06-11 16:43:00,
2013-06-11 11:49:00,88.7,70.5,29.91,South,169,7.0,13.0,55,0.00,,---,0.00,VWS V14.01,2013-06-11 16:49:00,
2013-06-11 11:52:00,88.5,69.8,29.91,SSW,198,5.0,14.0,54,0.00,,---,0.00,VWS V14.01,2013-06-11 16:52:00,
2013-06-11 11:55:00,88.9,70.1,29.91,SSW,212,5.0,14.0,54,0.00,,---,0.00,VWS V14.01,2013-06-11 16:55:00,
2013-06-11 11:58:00,89.2,70.9,29.92,SSE,161,3.0,14.0,55,0.00,,---,0.00,VWS V14.01,2013-06-11 16:58:00,
2013-06-11 12:01:00,89.2,69.8,29.91,SSW,206,7.0,9.0,53,0.00,,---,0.00,VWS V14.01,2013-06-11 17:01:00,
2013-06-11 12:04:00,89.7,71.4,29.91,SSE,164,6.0,9.0,55,0.00,,---,0.00,VWS V14.01,2013-06-11 17:04:00,
2013-06-11 12:07:00,90.3,70.3,29.91,SSW,194,8.0,11.0,52,0.00,,---,0.00,VWS V14.01,2013-06-11 17:07:00,
2013-06-11 12:10:00,90.6,70.0,29.91,SE,130,6.0,12.0,51,0.00,,---,0.00,VWS V14.01,2013-06-11 17:10:00,
2013-06-11 12:13:00,90.8,70.8,29.91,South,169,6.0,12.0,52,0.00,,---,0.00,VWS V14.01,2013-06-11 17:13:00,
2013-06-11 12:16:00,91.1,70.5,29.91,SSW,194,10.0,13.0,51,0.00,,---,0.00,VWS V14.01,2013-06-11 17:16:00,
2013-06-11 12:19:00,91.0,69.2,29.91,SSW,209,5.0,13.0,49,0.00,,---,0.00,VWS V14.01,2013-06-11 17:19:00,
2013-06-11 12:22:00,90.8,70.2,29.91,South,191,8.0,13.0,51,0.00,,---,0.00,VWS V14.01,2013-06-11 17:22:00,
2013-06-11 12:25:00,90.4,69.8,29.91,South,171,7.0,13.0,51,0.00,,---,0.00,VWS V14.01,2013-06-11 17:25:00,
2013-06-11 12:28:00,90.8,70.2,29.91,South,185,5.0,13.0,51,0.00,,---,0.00,VWS V14.01,2013-06-11 17:28:00,
2013-06-11 12:31:00,90.8,70.2,29.91,SSW,210,7.0,11.0,51,0.00,,---,0.00,VWS V14.01,2013-06-11 17:31:00,
2013-06-11 12:34:00,90.9,70.3,29.91,South,187,8.0,11.0,51,0.00,,---,0.00,VWS V14.01,2013-06-11 17:34:00,
2013-06-11 12:37:00,90.9,68.5,29.90,SSW,197,4.0,11.0,48,0.00,,---,0.00,VWS V14.01,2013-06-11 17:37:00,
2013-06-11 12:40:00,90.8,70.2,29.90,SW,218,6.0,11.0,51,0.00,,---,0.00,VWS V14.01,2013-06-11 17:40:00,
2013-06-11 12:43:00,91.1,69.3,29.91,South,173,4.0,11.0,49,0.00,,---,0.00,VWS V14.01,2013-06-11 17:43:00,
2013-06-11 12:46:00,91.1,69.3,29.90,South,188,7.0,11.0,49,0.00,,---,0.00,VWS V14.01,2013-06-11 17:46:00,
2013-06-11 12:49:00,91.3,70.7,29.90,SSW,209,7.0,12.0,51,0.00,,---,0.00,VWS V14.01,2013-06-11 17:49:00,
2013-06-11 12:56:00,91.2,70.0,29.90,SE,146,6.0,12.0,50,0.00,,---,0.00,VWS V14.01,2013-06-11 17:56:00,
2013-06-11 12:58:00,91.5,70.2,29.90,SSW,197,7.0,14.0,50,0.00,,---,0.00,VWS V14.01,2013-06-11 17:58:00,
2013-06-11 12:59:00,91.6,70.3,29.90,SSW,210,8.0,8.0,50,0.00,,---,0.00,VWS V14.01,2013-06-11 17:59:00,
2013-06-11 13:05:00,92.3,69.2,29.90,SSE,153,8.0,11.0,47,0.00,,---,0.00,VWS V14.01,2013-06-11 18:05:00,
2013-06-11 13:08:00,92.0,68.9,29.90,SSE,153,5.0,11.0,47,0.00,,---,0.00,VWS V14.01,2013-06-11 18:08:00,
2013-06-11 13:11:00,91.9,70.0,29.90,SSW,198,7.0,11.0,49,0.00,,---,0.00,VWS V14.01,2013-06-11 18:11:00,
2013-06-11 13:14:00,92.0,68.9,29.90,ESE,123,9.0,13.0,47,0.00,,---,0.00,VWS V14.01,2013-06-11 18:14:00,
2013-06-11 13:17:00,92.4,69.3,29.90,SSE,167,8.0,13.0,47,0.00,,---,0.00,VWS V14.01,2013-06-11 18:17:00,
2013-06-11 13:23:00,92.6,69.4,29.89,South,190,7.0,13.0,47,0.00,,---,0.00,VWS V14.01,2013-06-11 18:23:00,
2013-06-11 13:28:00,92.8,70.2,29.89,SSW,207,7.0,13.0,48,0.00,,---,0.00,VWS V14.01,2013-06-11 18:28:00,
2013-06-11 13:29:00,92.9,69.7,29.89,SW,216,7.0,9.0,47,0.00,,---,0.00,VWS V14.01,2013-06-11 18:29:00,
2013-06-11 13:32:00,92.9,68.4,29.89,SW,235,7.0,14.0,45,0.00,,---,0.00,VWS V14.01,2013-06-11 18:32:00,
2013-06-11 13:35:00,91.9,68.8,29.89,South,182,6.0,14.0,47,0.00,,---,0.00,VWS V14.01,2013-06-11 18:35:00,
2013-06-11 13:38:00,91.4,69.0,29.89,SSW,210,7.0,14.0,48,0.00,,---,0.00,VWS V14.01,2013-06-11 18:38:00,
2013-06-11 13:41:00,92.0,68.9,29.88,SSW,195,7.0,14.0,47,0.00,,---,0.00,VWS V14.01,2013-06-11 18:41:00,
2013-06-11 13:47:00,92.9,67.8,29.89,South,173,8.0,14.0,44,0.00,,---,0.00,VWS V14.01,2013-06-11 18:47:00,
2013-06-11 13:50:00,93.3,68.2,29.88,SSE,167,2.0,14.0,44,0.00,,---,0.00,VWS V14.01,2013-06-11 18:50:00,
2013-06-11 13:53:00,93.5,69.0,29.88,SSW,202,11.0,14.0,45,0.00,,---,0.00,VWS V14.01,2013-06-11 18:53:00,
2013-06-11 13:58:00,94.0,68.1,29.88,SSW,203,5.0,14.0,43,0.00,,---,0.00,VWS V14.01,2013-06-11 18:58:00,
2013-06-11 13:59:00,94.0,67.4,29.88,South,191,1.0,9.0,42,0.00,,---,0.00,VWS V14.01,2013-06-11 18:59:00,
2013-06-11 14:02:00,94.4,69.8,29.88,South,184,8.0,10.0,45,0.00,,---,0.00,VWS V14.01,2013-06-11 19:02:00,
2013-06-11 14:05:00,94.4,69.1,29.88,SE,146,7.0,10.0,44,0.00,,---,0.00,VWS V14.01,2013-06-11 19:05:00,
2013-06-11 14:08:00,94.4,68.5,29.88,SE,132,5.0,13.0,43,0.00,,---,0.00,VWS V14.01,2013-06-11 19:08:00,
2013-06-11 14:11:00,94.2,66.9,29.88,South,189,5.0,13.0,41,0.00,,---,0.00,VWS V14.01,2013-06-11 19:11:00,
2013-06-11 14:14:00,94.3,69.7,29.88,South,171,6.0,13.0,45,0.00,,---,0.00,VWS V14.01,2013-06-11 19:14:00,
2013-06-11 14:17:00,94.7,68.1,29.87,SE,144,4.0,16.0,42,0.00,,---,0.00,VWS V14.01,2013-06-11 19:17:00,
2013-06-11 14:20:00,94.6,68.7,29.88,SSE,155,9.0,16.0,43,0.00,,---,0.00,VWS V14.01,2013-06-11 19:20:00,
2013-06-11 14:23:00,94.8,69.5,29.87,South,179,6.0,16.0,44,0.00,,---,0.00,VWS V14.01,2013-06-11 19:23:00,
2013-06-11 14:26:00,94.7,68.1,29.87,South,189,8.0,16.0,42,0.00,,---,0.00,VWS V14.01,2013-06-11 19:26:00,
2013-06-11 14:28:00,94.5,67.9,29.87,SSE,157,7.0,16.0,42,0.00,,---,0.00,VWS V14.01,2013-06-11 19:28:00,
2013-06-11 14:29:00,94.5,67.9,29.87,SSE,155,6.0,7.0,42,0.00,,---,0.00,VWS V14.01,2013-06-11 19:29:00,
2013-06-11 14:35:00,94.4,67.8,29.87,South,181,6.0,14.0,42,0.00,,---,0.00,VWS V14.01,2013-06-11 19:35:00,
2013-06-11 14:41:00,94.6,68.0,29.87,SSE,155,6.0,14.0,42,0.00,,---,0.00,VWS V14.01,2013-06-11 19:41:00,
2013-06-11 14:47:00,94.4,68.5,29.87,South,190,9.0,14.0,43,0.00,,---,0.00,VWS V14.01,2013-06-11 19:47:00,
2013-06-11 14:53:00,94.5,67.9,29.86,SSW,196,11.0,14.0,42,0.00,,---,0.00,VWS V14.01,2013-06-11 19:53:00,
2013-06-11 14:57:00,94.8,67.4,29.86,SSE,159,5.0,14.0,41,0.00,,---,0.00,VWS V14.01,2013-06-11 19:57:00,
2013-06-11 15:03:00,95.3,67.2,29.86,SSE,153,6.0,13.0,40,0.00,,---,0.00,VWS V14.01,2013-06-11 20:03:00,
2013-06-11 15:06:00,95.3,67.2,29.86,SSW,198,7.0,13.0,40,0.00,,---,0.00,VWS V14.01,2013-06-11 20:06:00,
2013-06-11 15:09:00,94.9,66.8,29.86,SSW,205,1.0,13.0,40,0.00,,---,0.00,VWS V14.01,2013-06-11 20:09:00,
2013-06-11 15:12:00,94.9,66.8,29.86,SSE,165,6.0,13.0,40,0.00,,---,0.00,VWS V14.01,2013-06-11 20:12:00,
2013-06-11 15:18:00,95.4,67.3,29.86,South,181,6.0,14.0,40,0.00,,---,0.00,VWS V14.01,2013-06-11 20:18:00,
2013-06-11 15:21:00,95.3,67.2,29.86,South,188,6.0,14.0,40,0.00,,---,0.00,VWS V14.01,2013-06-11 20:21:00,
2013-06-11 15:24:00,95.1,65.5,29.85,SE,145,8.0,14.0,38,0.00,,---,0.00,VWS V14.01,2013-06-11 20:24:00,
2013-06-11 15:27:00,94.8,66.0,29.85,SE,144,5.0,14.0,39,0.00,,---,0.00,VWS V14.01,2013-06-11 20:27:00,
2013-06-11 15:30:00,95.1,67.7,29.85,SSE,156,6.0,8.0,41,0.00,,---,0.00,VWS V14.01,2013-06-11 20:30:00,
2013-06-11 15:39:00,95.5,65.9,29.85,South,177,4.0,13.0,38,0.00,,---,0.00,VWS V14.01,2013-06-11 20:39:00,
2013-06-11 15:42:00,95.6,68.2,29.85,SSE,165,9.0,13.0,41,0.00,,---,0.00,VWS V14.01,2013-06-11 20:42:00,
2013-06-11 15:45:00,95.7,66.1,29.85,SSW,200,4.0,13.0,38,0.00,,---,0.00,VWS V14.01,2013-06-11 20:45:00,
2013-06-11 15:48:00,95.4,65.8,29.85,SSE,160,4.0,13.0,38,0.00,,---,0.00,VWS V14.01,2013-06-11 20:48:00,
2013-06-11 15:51:00,95.3,66.4,29.84,SW,220,4.0,13.0,39,0.00,,---,0.00,VWS V14.01,2013-06-11 20:51:00,
2013-06-11 15:54:00,95.5,66.6,29.84,South,169,5.0,13.0,39,0.00,,---,0.00,VWS V14.01,2013-06-11 20:54:00,
2013-06-11 15:57:00,95.2,65.6,29.84,SSE,167,7.0,13.0,38,0.00,,---,0.00,VWS V14.01,2013-06-11 20:57:00,
2013-06-11 16:00:00,94.7,65.9,29.84,SSE,151,3.0,7.0,39,0.00,,---,0.00,VWS V14.01,2013-06-11 21:00:00,
2013-06-11 16:03:00,95.0,66.9,29.84,SE,135,7.0,13.0,40,0.00,,---,0.00,VWS V14.01,2013-06-11 21:03:00,
2013-06-11 16:06:00,95.1,66.3,29.84,South,184,3.0,13.0,39,0.00,,---,0.00,VWS V14.01,2013-06-11 21:06:00,
2013-06-11 16:09:00,95.3,66.4,29.84,SSE,159,4.0,13.0,39,0.00,,---,0.00,VWS V14.01,2013-06-11 21:09:00,
2013-06-11 16:12:00,95.3,67.2,29.84,SSW,203,2.0,13.0,40,0.00,,---,0.00,VWS V14.01,2013-06-11 21:12:00,
2013-06-11 16:15:00,95.3,67.2,29.83,SSE,150,6.0,13.0,40,0.00,,---,0.00,VWS V14.01,2013-06-11 21:15:00,
2013-06-11 16:21:00,95.8,68.3,29.84,SSE,160,8.0,13.0,41,0.00,,---,0.00,VWS V14.01,2013-06-11 21:21:00,
2013-06-11 16:27:00,95.6,66.7,29.84,South,189,9.0,13.0,39,0.00,,---,0.00,VWS V14.01,2013-06-11 21:27:00,
2013-06-11 16:28:00,95.5,65.9,29.84,SSW,213,8.0,13.0,38,0.00,,---,0.00,VWS V14.01,2013-06-11 21:28:00,
2013-06-11 16:30:00,95.3,67.2,29.84,SSE,165,5.0,11.0,40,0.00,,---,0.00,VWS V14.01,2013-06-11 21:30:00,
2013-06-11 16:33:00,95.3,67.2,29.84,SE,144,13.0,14.0,40,0.00,,---,0.00,VWS V14.01,2013-06-11 21:33:00,
2013-06-11 16:36:00,95.4,66.5,29.84,SSE,152,4.0,14.0,39,0.00,,---,0.00,VWS V14.01,2013-06-11 21:36:00,
2013-06-11 16:39:00,95.3,67.2,29.84,South,172,6.0,14.0,40,0.00,,---,0.00,VWS V14.01,2013-06-11 21:39:00,
2013-06-11 16:42:00,94.7,66.6,29.84,SSE,167,7.0,14.0,40,0.00,,---,0.00,VWS V14.01,2013-06-11 21:42:00,
2013-06-11 16:48:00,95.1,67.0,29.83,SSE,155,10.0,14.0,40,0.00,,---,0.00,VWS V14.01,2013-06-11 21:48:00,
2013-06-11 16:52:00,95.2,67.1,29.83,SE,130,11.0,14.0,40,0.00,,---,0.00,VWS V14.01,2013-06-11 21:52:00,
2013-06-11 16:55:00,95.4,66.5,29.83,SSE,164,4.0,14.0,39,0.00,,---,0.00,VWS V14.01,2013-06-11 21:55:00,
2013-06-11 16:58:00,95.4,67.3,29.83,SSE,147,5.0,14.0,40,0.00,,---,0.00,VWS V14.01,2013-06-11 21:58:00,
2013-06-11 17:01:00,95.5,67.4,29.83,South,174,6.0,10.0,40,0.00,,---,0.00,VWS V14.01,2013-06-11 22:01:00,
2013-06-11 17:04:00,95.5,66.6,29.83,South,186,7.0,13.0,39,0.00,,---,0.00,VWS V14.01,2013-06-11 22:04:00,
2013-06-11 17:07:00,95.3,67.2,29.83,SSW,194,11.0,14.0,40,0.00,,---,0.00,VWS V14.01,2013-06-11 22:07:00,
2013-06-11 17:13:00,95.3,67.9,29.83,South,182,8.0,14.0,41,0.00,,---,0.00,VWS V14.01,2013-06-11 22:13:00,
2013-06-11 17:16:00,94.7,65.9,29.83,SE,130,6.0,14.0,39,0.00,,---,0.00,VWS V14.01,2013-06-11 22:16:00,
2013-06-11 17:19:00,94.7,67.4,29.83,SE,138,7.0,14.0,41,0.00,,---,0.00,VWS V14.01,2013-06-11 22:19:00,
2013-06-11 17:25:00,95.0,67.6,29.83,South,175,7.0,14.0,41,0.00,,---,0.00,VWS V14.01,2013-06-11 22:25:00,
2013-06-11 17:28:00,94.9,66.8,29.83,South,183,6.0,14.0,40,0.00,,---,0.00,VWS V14.01,2013-06-11 22:28:00,
2013-06-11 17:34:00,94.7,67.4,29.82,South,178,7.0,12.0,41,0.00,,---,0.00,VWS V14.01,2013-06-11 22:34:00,
2013-06-11 17:40:00,94.8,67.4,29.82,South,175,7.0,12.0,41,0.00,,---,0.00,VWS V14.01,2013-06-11 22:40:00,
2013-06-11 17:43:00,94.7,66.6,29.83,SE,142,5.0,12.0,40,0.00,,---,0.00,VWS V14.01,2013-06-11 22:43:00,
2013-06-11 17:49:00,94.7,68.1,29.82,SE,135,11.0,12.0,42,0.00,,---,0.00,VWS V14.01,2013-06-11 22:49:00,
2013-06-11 17:52:00,94.6,68.7,29.82,SE,138,10.0,12.0,43,0.00,,---,0.00,VWS V14.01,2013-06-11 22:52:00,
2013-06-11 17:55:00,94.5,67.9,29.82,South,170,13.0,16.0,42,0.00,,---,0.00,VWS V14.01,2013-06-11 22:55:00,
2013-06-11 17:58:00,94.2,67.6,29.82,SSE,163,8.0,16.0,42,0.00,,---,0.00,VWS V14.01,2013-06-11 22:58:00,
2013-06-11 18:04:00,93.9,68.0,29.82,SSE,159,7.0,9.0,43,0.00,,---,0.00,VWS V14.01,2013-06-11 23:04:00,
2013-06-11 18:07:00,93.9,67.3,29.82,SE,140,14.0,15.0,42,0.00,,---,0.00,VWS V14.01,2013-06-11 23:07:00,
2013-06-11 18:10:00,93.6,67.1,29.82,SE,140,8.0,15.0,42,0.00,,---,0.00,VWS V14.01,2013-06-11 23:10:00,
2013-06-11 18:13:00,93.5,67.0,29.82,SE,132,9.0,15.0,42,0.00,,---,0.00,VWS V14.01,2013-06-11 23:13:00,
2013-06-11 18:16:00,93.5,67.7,29.82,SE,144,5.0,15.0,43,0.00,,---,0.00,VWS V14.01,2013-06-11 23:16:00,
2013-06-11 18:20:00,93.5,67.0,29.82,SSE,147,6.0,15.0,42,0.00,,---,0.00,VWS V14.01,2013-06-11 23:20:00,
2013-06-11 18:23:00,93.7,67.2,29.82,South,188,6.0,16.0,42,0.00,,---,0.00,VWS V14.01,2013-06-11 23:23:00,
2013-06-11 18:26:00,93.6,68.4,29.82,SE,143,8.0,16.0,44,0.00,,---,0.00,VWS V14.01,2013-06-11 23:26:00,
2013-06-11 18:32:00,93.4,67.6,29.81,SSE,166,8.0,14.0,43,0.00,,---,0.00,VWS V14.01,2013-06-11 23:32:00,
2013-06-11 18:35:00,93.3,66.8,29.81,SSE,166,5.0,14.0,42,0.00,,---,0.00,VWS V14.01,2013-06-11 23:35:00,
2013-06-11 18:41:00,92.9,67.1,29.81,South,179,7.0,14.0,43,0.00,,---,0.00,VWS V14.01,2013-06-11 23:41:00,
2013-06-11 18:44:00,92.7,67.6,29.81,SSE,160,6.0,14.0,44,0.00,,---,0.00,VWS V14.01,2013-06-11 23:44:00,
2013-06-11 18:50:00,92.6,67.5,29.81,South,171,7.0,14.0,44,0.00,,---,0.00,VWS V14.01,2013-06-11 23:50:00,
2013-06-11 18:53:00,92.5,68.1,29.81,South,170,7.0,14.0,45,0.00,,---,0.00,VWS V14.01,2013-06-11 23:53:00,
2013-06-11 18:58:00,92.3,67.2,29.81,SSE,161,6.0,16.0,44,0.00,,---,0.00,VWS V14.01,2013-06-11 23:58:00,
2013-06-11 18:59:00,92.2,67.2,29.81,SE,126,9.0,9.0,44,0.00,,---,0.00,VWS V14.01,2013-06-11 23:59:00,
2013-06-11 19:02:00,92.1,67.7,29.81,SE,140,10.0,14.0,45,0.00,,---,0.00,VWS V14.01,2013-06-12 00:02:00,
2013-06-11 19:08:00,92.0,67.0,29.81,South,183,8.0,14.0,44,0.00,,---,0.00,VWS V14.01,2013-06-12 00:08:00,
2013-06-11 19:14:00,91.8,66.8,29.81,SSE,165,8.0,14.0,44,0.00,,---,0.00,VWS V14.01,2013-06-12 00:14:00,
2013-06-11 19:17:00,91.7,67.4,29.81,SSE,161,9.0,14.0,45,0.00,,---,0.00,VWS V14.01,2013-06-12 00:17:00,
2013-06-11 19:23:00,91.6,66.6,29.81,SSE,155,6.0,14.0,44,0.00,,---,0.00,VWS V14.01,2013-06-12 00:23:00,
2013-06-11 19:26:00,91.5,67.2,29.81,SSE,158,8.0,14.0,45,0.00,,---,0.00,VWS V14.01,2013-06-12 00:26:00,
2013-06-11 19:28:00,91.4,67.1,29.81,SE,146,7.0,14.0,45,0.00,,---,0.00,VWS V14.01,2013-06-12 00:28:00,
2013-06-11 19:29:00,91.3,67.0,29.81,SSE,157,4.0,9.0,45,0.00,,---,0.00,VWS V14.01,2013-06-12 00:29:00,
2013-06-11 19:35:00,91.1,66.8,29.81,SSE,153,8.0,14.0,45,0.00,,---,0.00,VWS V14.01,2013-06-12 00:35:00,
2013-06-11 19:38:00,91.1,66.8,29.81,SSE,150,4.0,14.0,45,0.00,,---,0.00,VWS V14.01,2013-06-12 00:38:00,
2013-06-11 19:44:00,90.9,66.6,29.81,SSE,164,9.0,14.0,45,0.00,,---,0.00,VWS V14.01,2013-06-12 00:44:00,
2013-06-11 19:50:00,90.6,66.4,29.81,SSE,152,4.0,14.0,45,0.00,,---,0.00,VWS V14.01,2013-06-12 00:50:00,
2013-06-11 19:56:00,90.4,66.2,29.81,SSE,156,4.0,14.0,45,0.00,,---,0.00,VWS V14.01,2013-06-12 00:56:00,
2013-06-11 19:58:00,90.2,66.6,29.81,SSE,161,4.0,14.0,46,0.00,,---,0.00,VWS V14.01,2013-06-12 00:58:00,
2013-06-11 20:02:00,90.0,66.5,29.81,SSE,159,3.0,8.0,46,0.00,,---,0.00,VWS V14.01,2013-06-12 01:02:00,
2013-06-11 20:08:00,89.7,65.6,29.81,SSE,167,7.0,11.0,45,0.00,,---,0.00,VWS V14.01,2013-06-12 01:08:00,
2013-06-11 20:12:00,89.6,66.1,29.81,SSE,151,6.0,11.0,46,0.00,,---,0.00,VWS V14.01,2013-06-12 01:12:00,
2013-06-11 20:15:00,89.5,66.0,29.81,SE,130,4.0,11.0,46,0.00,,---,0.00,VWS V14.01,2013-06-12 01:15:00,
2013-06-11 20:21:00,89.0,66.2,29.81,SSE,158,2.0,11.0,47,0.00,,---,0.00,VWS V14.01,2013-06-12 01:21:00,
2013-06-11 20:24:00,88.7,65.9,29.81,SSE,157,7.0,11.0,47,0.00,,---,0.00,VWS V14.01,2013-06-12 01:24:00,
2013-06-11 20:27:00,88.6,65.8,29.81,SE,142,2.0,11.0,47,0.00,,---,0.00,VWS V14.01,2013-06-12 01:27:00,
2013-06-11 20:28:00,88.5,65.7,29.81,SSE,161,2.0,11.0,47,0.00,,---,0.00,VWS V14.01,2013-06-12 01:28:00,
2013-06-11 20:30:00,88.3,66.1,29.81,SSE,151,6.0,6.0,48,0.00,,---,0.00,VWS V14.01,2013-06-12 01:30:00,
2013-06-11 20:33:00,88.1,66.0,29.81,SSE,165,4.0,7.0,48,0.00,,---,0.00,VWS V14.01,2013-06-12 01:33:00,
2013-06-11 20:36:00,87.8,65.7,29.81,South,172,2.0,7.0,48,0.00,,---,0.00,VWS V14.01,2013-06-12 01:36:00,
2013-06-11 20:42:00,87.2,65.7,29.81,SSE,152,5.0,7.0,49,0.00,,---,0.00,VWS V14.01,2013-06-12 01:42:00,
2013-06-11 20:48:00,86.8,65.9,29.81,SE,141,3.0,7.0,50,0.00,,---,0.00,VWS V14.01,2013-06-12 01:48:00,
2013-06-11 20:54:00,86.4,66.2,29.81,SSE,149,4.0,8.0,51,0.00,,---,0.00,VWS V14.01,2013-06-12 01:54:00,
2013-06-11 20:57:00,86.1,65.9,29.81,SSE,151,3.0,8.0,51,0.00,,---,0.00,VWS V14.01,2013-06-12 01:57:00,
2013-06-11 21:00:00,86.0,66.3,29.81,SSE,158,2.0,5.0,52,0.00,,---,0.00,VWS V14.01,2013-06-12 02:00:00,
2013-06-11 21:03:00,85.7,66.1,29.81,SSE,162,2.0,6.0,52,0.00,,---,0.00,VWS V14.01,2013-06-12 02:03:00,
2013-06-11 21:09:00,85.4,66.3,29.82,SSE,153,5.0,7.0,53,0.00,,---,0.00,VWS V14.01,2013-06-12 02:09:00,
2013-06-11 21:15:00,85.4,66.9,29.82,SSE,152,6.0,10.0,54,0.00,,---,0.00,VWS V14.01,2013-06-12 02:15:00,
2013-06-11 21:18:00,85.5,67.0,29.82,SSE,155,2.0,10.0,54,0.00,,---,0.00,VWS V14.01,2013-06-12 02:18:00,
2013-06-11 21:21:00,85.4,66.9,29.82,SE,146,4.0,10.0,54,0.00,,---,0.00,VWS V14.01,2013-06-12 02:21:00,
2013-06-11 21:27:00,85.1,67.1,29.82,SE,143,6.0,10.0,55,0.00,,---,0.00,VWS V14.01,2013-06-12 02:27:00,
2013-06-11 21:28:00,85.0,67.0,29.82,SSE,148,5.0,10.0,55,0.00,,---,0.00,VWS V14.01,2013-06-12 02:28:00,
2013-06-11 21:30:00,84.9,66.9,29.82,SSE,159,4.0,7.0,55,0.00,,---,0.00,VWS V14.01,2013-06-12 02:30:00,
2013-06-11 21:36:00,84.9,67.5,29.82,SE,138,11.0,11.0,56,0.00,,---,0.00,VWS V14.01,2013-06-12 02:36:00,
2013-06-11 21:39:00,84.9,67.5,29.82,SSE,157,10.0,11.0,56,0.00,,---,0.00,VWS V14.01,2013-06-12 02:39:00,
2013-06-11 21:42:00,84.9,67.5,29.82,SE,141,8.0,11.0,56,0.00,,---,0.00,VWS V14.01,2013-06-12 02:42:00,
2013-06-11 21:45:00,84.9,67.5,29.83,SE,136,6.0,11.0,56,0.00,,---,0.00,VWS V14.01,2013-06-12 02:45:00,
2013-06-11 21:48:00,84.9,67.5,29.83,SSE,157,4.0,11.0,56,0.00,,---,0.00,VWS V14.01,2013-06-12 02:48:00,
2013-06-11 21:51:00,84.8,67.4,29.83,SE,138,4.0,11.0,56,0.00,,---,0.00,VWS V14.01,2013-06-12 02:51:00,
2013-06-11 21:57:00,84.5,67.6,29.83,SSE,161,6.0,11.0,57,0.00,,---,0.00,VWS V14.01,2013-06-12 02:57:00,
2013-06-11 21:58:00,84.4,67.5,29.83,SSE,151,6.0,11.0,57,0.00,,---,0.00,VWS V14.01,2013-06-12 02:58:00,
2013-06-11 22:02:00,83.6,66.8,29.84,SSE,163,1.0,7.0,57,0.00,,---,0.00,VWS V14.01,2013-06-12 03:02:00,
2013-06-11 22:03:00,84.4,67.5,29.83,SSE,150,5.0,9.0,57,0.00,,---,0.00,VWS V14.01,2013-06-12 03:03:00,
2013-06-11 22:05:00,83.5,66.7,29.84,SSE,167,4.0,9.0,57,0.00,,---,0.00,VWS V14.01,2013-06-12 03:05:00,
2013-06-11 22:06:00,84.3,67.4,29.83,SE,137,8.0,9.0,57,0.00,,---,0.00,VWS V14.01,2013-06-12 03:06:00,
2013-06-11 22:08:00,83.5,66.7,29.84,SSE,157,5.0,10.0,57,0.00,,---,0.00,VWS V14.01,2013-06-12 03:08:00,
2013-06-11 22:10:00,84.2,67.3,29.83,SSE,150,3.0,9.0,57,0.00,,---,0.00,VWS V14.01,2013-06-12 03:10:00,
2013-06-11 22:11:00,83.4,66.6,29.84,SSE,148,3.0,10.0,57,0.00,,---,0.00,VWS V14.01,2013-06-12 03:11:00,
2013-06-11 22:13:00,84.1,67.2,29.83,SSE,153,7.0,9.0,57,0.00,,---,0.00,VWS V14.01,2013-06-12 03:13:00,
2013-06-11 22:14:00,83.5,66.7,29.85,South,174,4.0,11.0,57,0.00,,---,0.00,VWS V14.01,2013-06-12 03:14:00,
2013-06-11 22:16:00,84.1,67.2,29.83,SSE,151,6.0,9.0,57,0.00,,---,0.00,VWS V14.01,2013-06-12 03:16:00,
2013-06-11 22:17:00,83.4,66.6,29.85,SSE,165,4.0,11.0,57,0.00,,---,0.00,VWS V14.01,2013-06-12 03:17:00,
2013-06-11 22:19:00,84.1,67.2,29.83,South,178,6.0,10.0,57,0.00,,---,0.00,VWS V14.01,2013-06-12 03:19:00,
2013-06-11 22:20:00,83.4,66.6,29.85,SSE,152,12.0,12.0,57,0.00,,---,0.00,VWS V14.01,2013-06-12 03:20:00,
2013-06-11 22:22:00,84.0,67.1,29.84,SSE,154,5.0,10.0,57,0.00,,---,0.00,VWS V14.01,2013-06-12 03:22:00,
2013-06-11 22:23:00,83.5,66.7,29.85,South,171,2.0,12.0,57,0.00,,---,0.00,VWS V14.01,2013-06-12 03:23:00,
2013-06-11 22:26:00,83.3,66.5,29.84,SSE,156,5.0,12.0,57,0.00,,---,0.00,VWS V14.01,2013-06-12 03:26:00,
2013-06-11 22:28:00,84.0,67.7,29.84,South,169,5.0,10.0,58,0.00,,---,0.00,VWS V14.01,2013-06-12 03:28:00,
2013-06-11 22:29:00,83.2,66.9,29.85,SSE,167,4.0,12.0,58,0.00,,---,0.00,VWS V14.01,2013-06-12 03:29:00,
2013-06-11 22:30:00,83.2,66.9,29.85,SSE,155,7.0,12.0,58,0.00,,---,0.00,VWS V14.01,2013-06-12 03:30:00,
2013-06-11 22:31:00,83.9,67.6,29.84,SSE,156,4.0,8.0,58,0.00,,---,0.00,VWS V14.01,2013-06-12 03:31:00,
2013-06-11 22:32:00,83.2,66.9,29.85,SSW,192,7.0,7.0,58,0.00,,---,0.00,VWS V14.01,2013-06-12 03:32:00,
2013-06-11 22:34:00,83.8,67.5,29.84,SSE,151,7.0,9.0,58,0.00,,---,0.00,VWS V14.01,2013-06-12 03:34:00,
2013-06-11 22:35:00,83.1,66.8,29.85,SE,138,8.0,11.0,58,0.00,,---,0.00,VWS V14.01,2013-06-12 03:35:00,
2013-06-11 22:37:00,83.7,67.4,29.84,SSE,148,6.0,9.0,58,0.00,,---,0.00,VWS V14.01,2013-06-12 03:37:00,
2013-06-11 22:38:00,83.1,66.8,29.85,SSE,161,7.0,11.0,58,0.00,,---,0.00,VWS V14.01,2013-06-12 03:38:00,
2013-06-11 22:40:00,83.6,67.3,29.84,SSE,155,3.0,9.0,58,0.00,,---,0.00,VWS V14.01,2013-06-12 03:40:00,
2013-06-11 22:41:00,83.2,66.9,29.85,South,173,6.0,12.0,58,0.00,,---,0.00,VWS V14.01,2013-06-12 03:41:00,
2013-06-11 22:43:00,83.5,67.2,29.84,SSE,163,7.0,10.0,58,0.00,,---,0.00,VWS V14.01,2013-06-12 03:43:00,
2013-06-11 22:45:00,83.2,66.9,29.85,SSE,148,6.0,13.0,58,0.00,,---,0.00,VWS V14.01,2013-06-12 03:45:00,
2013-06-11 22:46:00,83.6,67.3,29.84,SE,134,7.0,10.0,58,0.00,,---,0.00,VWS V14.01,2013-06-12 03:46:00,
2013-06-11 22:48:00,83.1,67.3,29.85,SSE,161,5.0,13.0,59,0.00,,---,0.00,VWS V14.01,2013-06-12 03:48:00,
2013-06-11 22:49:00,83.7,67.4,29.84,SE,137,7.0,10.0,58,0.00,,---,0.00,VWS V14.01,2013-06-12 03:49:00,
2013-06-11 22:51:00,82.9,67.1,29.85,South,170,6.0,13.0,59,0.00,,---,0.00,VWS V14.01,2013-06-12 03:51:00,
2013-06-11 22:52:00,83.7,66.9,29.84,SE,142,5.0,10.0,57,0.00,,---,0.00,VWS V14.01,2013-06-12 03:52:00,
2013-06-11 22:54:00,82.8,67.5,29.86,South,176,1.0,13.0,60,0.00,,---,0.00,VWS V14.01,2013-06-12 03:54:00,
2013-06-11 22:55:00,83.6,66.8,29.84,SSE,165,5.0,10.0,57,0.00,,---,0.00,VWS V14.01,2013-06-12 03:55:00,
2013-06-11 22:57:00,82.7,67.4,29.86,South,171,6.0,13.0,60,0.00,,---,0.00,VWS V14.01,2013-06-12 03:57:00,
2013-06-11 22:58:00,83.6,66.8,29.84,SSE,168,4.0,10.0,57,0.00,,---,0.00,VWS V14.01,2013-06-12 03:58:00,
2013-06-11 23:00:00,82.7,67.4,29.86,South,169,10.0,13.0,60,0.00,,---,0.00,VWS V14.01,2013-06-12 04:00:00,
2013-06-11 23:03:00,82.5,67.2,29.86,South,176,7.0,11.0,60,0.00,,---,0.00,VWS V14.01,2013-06-12 04:03:00,
2013-06-11 23:06:00,82.4,67.6,29.86,South,178,8.0,11.0,61,0.00,,---,0.00,VWS V14.01,2013-06-12 04:06:00,
2013-06-11 23:09:00,82.3,67.5,29.86,SSW,192,7.0,11.0,61,0.00,,---,0.00,VWS V14.01,2013-06-12 04:09:00,
2013-06-11 23:12:00,82.2,67.4,29.86,South,176,9.0,11.0,61,0.00,,---,0.00,VWS V14.01,2013-06-12 04:12:00,
2013-06-11 23:15:00,82.1,67.8,29.86,South,178,3.0,11.0,62,0.00,,---,0.00,VWS V14.01,2013-06-12 04:15:00,
2013-06-11 23:18:00,81.9,67.6,29.86,South,190,5.0,11.0,62,0.00,,---,0.00,VWS V14.01,2013-06-12 04:18:00,
2013-06-11 23:21:00,81.8,67.5,29.86,SSE,166,5.0,11.0,62,0.00,,---,0.00,VWS V14.01,2013-06-12 04:21:00,
2013-06-11 23:24:00,81.6,67.8,29.86,SSE,161,5.0,11.0,63,0.00,,---,0.00,VWS V14.01,2013-06-12 04:24:00,
2013-06-11 23:27:00,81.5,67.7,29.86,SSE,167,5.0,11.0,63,0.00,,---,0.00,VWS V14.01,2013-06-12 04:27:00,
2013-06-11 23:30:00,81.4,68.1,29.86,South,178,3.0,11.0,64,0.00,,---,0.00,VWS V14.01,2013-06-12 04:30:00,
2013-06-11 23:33:00,81.2,67.9,29.86,South,190,5.0,7.0,64,0.00,,---,0.00,VWS V14.01,2013-06-12 04:33:00,
2013-06-11 23:36:00,81.2,67.9,29.86,South,175,5.0,9.0,64,0.00,,---,0.00,VWS V14.01,2013-06-12 04:36:00,
2013-06-11 23:39:00,81.1,67.8,29.86,South,172,4.0,10.0,64,0.00,,---,0.00,VWS V14.01,2013-06-12 04:39:00,
2013-06-11 23:42:00,81.0,68.1,29.86,South,178,2.0,10.0,65,0.00,,---,0.00,VWS V14.01,2013-06-12 04:42:00,
2013-06-11 23:45:00,80.8,67.9,29.86,South,173,5.0,10.0,65,0.00,,---,0.00,VWS V14.01,2013-06-12 04:45:00,
2013-06-11 23:48:00,80.7,68.3,29.86,SSW,192,6.0,10.0,66,0.00,,---,0.00,VWS V14.01,2013-06-12 04:48:00,
2013-06-11 23:51:00,80.6,68.2,29.86,South,169,3.0,10.0,66,0.00,,---,0.00,VWS V14.01,2013-06-12 04:51:00,
2013-06-11 23:54:00,80.4,68.0,29.86,South,175,3.0,10.0,66,0.00,,---,0.00,VWS V14.01,2013-06-12 04:54:00,
2013-06-11 23:57:00,80.3,68.3,29.86,South,189,4.0,10.0,67,0.00,,---,0.00,VWS V14.01,2013-06-12 04:57:00,